sensor_id;sensor_type;location;lat;lon;timestamp;P1;durP1;ratioP1;P2;durP2;ratioP2
3801;SDS011;1916;51.798;12.246;2023-06-05T00:00:24;3.53;;;3.20;;
3801;SDS011;1916;51.798;12.246;2023-06-05T00:02:26;4.93;;;4.20;;
3801;SDS011;1916;51.798;12.246;2023-06-05T00:04:29;6.97;;;4.40;;
3801;SDS011;1916;51.798;12.246;2023-06-05T00:06:32;5.40;;;4.10;;
3801;SDS011;1916;51.798;12.246;2023-06-05T00:08:34;6.50;;;4.17;;
3801;SDS011;1916;51.798;12.246;2023-06-05T00:10:37;4.27;;;3.80;;
3801;SDS011;1916;51.798;12.246;2023-06-05T00:12:39;5.23;;;3.97;;
3801;SDS011;1916;51.798;12.246;2023-06-05T00:14:43;5.23;;;4.60;;
3801;SDS011;1916;51.798;12.246;2023-06-05T00:16:46;8.10;;;4.20;;
3801;SDS011;1916;51.798;12.246;2023-06-05T00:18:48;7.07;;;4.30;;
3801;SDS011;1916;51.798;12.246;2023-06-05T00:20:50;4.60;;;4.17;;
3801;SDS011;1916;51.798;12.246;2023-06-05T00:22:52;4.43;;;3.73;;
3801;SDS011;1916;51.798;12.246;2023-06-05T00:24:54;4.20;;;3.80;;
3801;SDS011;1916;51.798;12.246;2023-06-05T00:26:57;6.27;;;4.50;;
3801;SDS011;1916;51.798;12.246;2023-06-05T00:28:59;13.07;;;3.93;;
3801;SDS011;1916;51.798;12.246;2023-06-05T00:31:01;4.80;;;4.10;;
3801;SDS011;1916;51.798;12.246;2023-06-05T00:33:04;4.97;;;4.40;;
3801;SDS011;1916;51.798;12.246;2023-06-05T00:35:07;4.40;;;3.10;;
3801;SDS011;1916;51.798;12.246;2023-06-05T00:37:10;6.73;;;4.30;;
3801;SDS011;1916;51.798;12.246;2023-06-05T00:39:13;5.53;;;3.90;;
3801;SDS011;1916;51.798;12.246;2023-06-05T00:41:15;4.90;;;3.90;;
3801;SDS011;1916;51.798;12.246;2023-06-05T00:43:17;4.67;;;3.90;;
3801;SDS011;1916;51.798;12.246;2023-06-05T00:45:20;4.30;;;3.70;;
3801;SDS011;1916;51.798;12.246;2023-06-05T00:47:22;3.83;;;3.53;;
3801;SDS011;1916;51.798;12.246;2023-06-05T00:49:24;4.63;;;4.23;;
3801;SDS011;1916;51.798;12.246;2023-06-05T00:51:27;4.67;;;4.20;;
3801;SDS011;1916;51.798;12.246;2023-06-05T00:53:29;4.87;;;4.20;;
3801;SDS011;1916;51.798;12.246;2023-06-05T00:55:32;5.00;;;4.30;;
3801;SDS011;1916;51.798;12.246;2023-06-05T00:57:34;5.37;;;4.60;;
3801;SDS011;1916;51.798;12.246;2023-06-05T00:59:37;7.30;;;3.80;;
3801;SDS011;1916;51.798;12.246;2023-06-05T01:01:40;4.80;;;4.30;;
3801;SDS011;1916;51.798;12.246;2023-06-05T01:03:45;6.63;;;3.93;;
3801;SDS011;1916;51.798;12.246;2023-06-05T01:05:47;5.20;;;4.13;;
3801;SDS011;1916;51.798;12.246;2023-06-05T01:07:49;5.53;;;4.10;;
3801;SDS011;1916;51.798;12.246;2023-06-05T01:09:52;6.07;;;3.80;;
3801;SDS011;1916;51.798;12.246;2023-06-05T01:14:19;4.80;;;3.80;;
3801;SDS011;1916;51.798;12.246;2023-06-05T01:16:29;4.53;;;3.50;;
3801;SDS011;1916;51.798;12.246;2023-06-05T01:18:34;8.50;;;4.10;;
3801;SDS011;1916;51.798;12.246;2023-06-05T01:20:39;5.03;;;3.73;;
3801;SDS011;1916;51.798;12.246;2023-06-05T01:22:46;6.27;;;3.97;;
3801;SDS011;1916;51.798;12.246;2023-06-05T01:24:51;7.07;;;4.17;;
3801;SDS011;1916;51.798;12.246;2023-06-05T01:29:25;5.03;;;4.17;;
3801;SDS011;1916;51.798;12.246;2023-06-05T01:31:40;4.37;;;3.53;;
3801;SDS011;1916;51.798;12.246;2023-06-05T01:33:57;4.30;;;3.90;;
3801;SDS011;1916;51.798;12.246;2023-06-05T01:36:03;4.20;;;3.80;;
3801;SDS011;1916;51.798;12.246;2023-06-05T01:38:06;4.93;;;4.20;;
3801;SDS011;1916;51.798;12.246;2023-06-05T01:40:12;4.30;;;3.90;;
3801;SDS011;1916;51.798;12.246;2023-06-05T01:42:16;4.70;;;4.30;;
3801;SDS011;1916;51.798;12.246;2023-06-05T01:44:18;7.93;;;4.73;;
3801;SDS011;1916;51.798;12.246;2023-06-05T01:46:21;4.47;;;4.00;;
3801;SDS011;1916;51.798;12.246;2023-06-05T01:48:24;3.67;;;3.37;;
3801;SDS011;1916;51.798;12.246;2023-06-05T01:50:33;4.00;;;3.60;;
3801;SDS011;1916;51.798;12.246;2023-06-05T01:52:36;4.63;;;3.13;;
3801;SDS011;1916;51.798;12.246;2023-06-05T01:54:41;5.83;;;3.73;;
3801;SDS011;1916;51.798;12.246;2023-06-05T01:56:44;4.17;;;3.73;;
3801;SDS011;1916;51.798;12.246;2023-06-05T01:58:50;4.70;;;3.90;;
3801;SDS011;1916;51.798;12.246;2023-06-05T02:00:55;4.20;;;3.80;;
3801;SDS011;1916;51.798;12.246;2023-06-05T02:02:59;4.20;;;3.80;;
3801;SDS011;1916;51.798;12.246;2023-06-05T02:05:02;3.83;;;3.53;;
3801;SDS011;1916;51.798;12.246;2023-06-05T02:07:05;6.43;;;4.10;;
3801;SDS011;1916;51.798;12.246;2023-06-05T02:09:09;4.20;;;3.80;;
3801;SDS011;1916;51.798;12.246;2023-06-05T02:11:14;3.90;;;3.60;;
3801;SDS011;1916;51.798;12.246;2023-06-05T02:13:18;3.67;;;3.37;;
3801;SDS011;1916;51.798;12.246;2023-06-05T02:15:25;4.13;;;3.73;;
3801;SDS011;1916;51.798;12.246;2023-06-05T02:17:28;4.20;;;3.73;;
3801;SDS011;1916;51.798;12.246;2023-06-05T02:19:31;5.30;;;3.47;;
3801;SDS011;1916;51.798;12.246;2023-06-05T02:21:37;4.17;;;3.77;;
3801;SDS011;1916;51.798;12.246;2023-06-05T02:23:39;13.13;;;4.10;;
3801;SDS011;1916;51.798;12.246;2023-06-05T02:25:41;4.60;;;3.60;;
3801;SDS011;1916;51.798;12.246;2023-06-05T02:27:43;3.70;;;3.40;;
3801;SDS011;1916;51.798;12.246;2023-06-05T02:29:46;4.30;;;3.30;;
3801;SDS011;1916;51.798;12.246;2023-06-05T02:31:49;7.37;;;4.00;;
3801;SDS011;1916;51.798;12.246;2023-06-05T02:33:52;7.07;;;4.27;;
3801;SDS011;1916;51.798;12.246;2023-06-05T02:35:55;5.87;;;4.00;;
3801;SDS011;1916;51.798;12.246;2023-06-05T02:37:58;4.43;;;4.03;;
3801;SDS011;1916;51.798;12.246;2023-06-05T02:40:00;4.90;;;4.10;;
3801;SDS011;1916;51.798;12.246;2023-06-05T02:42:02;8.93;;;4.37;;
3801;SDS011;1916;51.798;12.246;2023-06-05T02:44:05;5.00;;;4.00;;
3801;SDS011;1916;51.798;12.246;2023-06-05T02:46:07;10.80;;;4.10;;
3801;SDS011;1916;51.798;12.246;2023-06-05T02:48:09;4.60;;;3.90;;
3801;SDS011;1916;51.798;12.246;2023-06-05T02:50:12;4.30;;;3.90;;
3801;SDS011;1916;51.798;12.246;2023-06-05T02:52:18;4.90;;;3.83;;
3801;SDS011;1916;51.798;12.246;2023-06-05T02:54:22;5.10;;;4.37;;
3801;SDS011;1916;51.798;12.246;2023-06-05T02:56:24;5.30;;;3.50;;
3801;SDS011;1916;51.798;12.246;2023-06-05T02:58:31;4.80;;;3.87;;
3801;SDS011;1916;51.798;12.246;2023-06-05T03:00:35;5.67;;;3.87;;
3801;SDS011;1916;51.798;12.246;2023-06-05T03:02:39;4.13;;;3.83;;
3801;SDS011;1916;51.798;12.246;2023-06-05T03:04:41;6.97;;;3.67;;
3801;SDS011;1916;51.798;12.246;2023-06-05T03:06:45;4.37;;;3.97;;
3801;SDS011;1916;51.798;12.246;2023-06-05T03:08:48;5.20;;;4.40;;
3801;SDS011;1916;51.798;12.246;2023-06-05T03:10:53;6.60;;;3.70;;
3801;SDS011;1916;51.798;12.246;2023-06-05T03:12:56;4.50;;;4.10;;
3801;SDS011;1916;51.798;12.246;2023-06-05T03:15:01;5.27;;;4.30;;
3801;SDS011;1916;51.798;12.246;2023-06-05T03:17:06;4.90;;;3.57;;
3801;SDS011;1916;51.798;12.246;2023-06-05T03:19:10;4.70;;;4.20;;
3801;SDS011;1916;51.798;12.246;2023-06-05T03:21:17;4.47;;;4.07;;
3801;SDS011;1916;51.798;12.246;2023-06-05T03:23:19;3.67;;;3.37;;
3801;SDS011;1916;51.798;12.246;2023-06-05T03:25:26;6.30;;;4.00;;
3801;SDS011;1916;51.798;12.246;2023-06-05T03:27:31;5.30;;;4.53;;
3801;SDS011;1916;51.798;12.246;2023-06-05T03:29:35;5.40;;;4.43;;
3801;SDS011;1916;51.798;12.246;2023-06-05T03:31:37;6.03;;;4.20;;
3801;SDS011;1916;51.798;12.246;2023-06-05T03:33:39;6.20;;;5.60;;
3801;SDS011;1916;51.798;12.246;2023-06-05T03:35:41;6.93;;;4.80;;
3801;SDS011;1916;51.798;12.246;2023-06-05T03:37:51;5.83;;;4.17;;
3801;SDS011;1916;51.798;12.246;2023-06-05T03:39:53;5.53;;;4.37;;
3801;SDS011;1916;51.798;12.246;2023-06-05T03:41:55;4.90;;;3.97;;
3801;SDS011;1916;51.798;12.246;2023-06-05T03:44:01;6.23;;;4.23;;
3801;SDS011;1916;51.798;12.246;2023-06-05T03:46:07;9.20;;;4.67;;
3801;SDS011;1916;51.798;12.246;2023-06-05T03:48:09;6.23;;;4.83;;
3801;SDS011;1916;51.798;12.246;2023-06-05T03:50:15;7.20;;;4.40;;
3801;SDS011;1916;51.798;12.246;2023-06-05T03:52:18;9.23;;;4.60;;
3801;SDS011;1916;51.798;12.246;2023-06-05T03:54:25;10.20;;;4.20;;
3801;SDS011;1916;51.798;12.246;2023-06-05T03:56:27;7.97;;;4.07;;
3801;SDS011;1916;51.798;12.246;2023-06-05T03:58:41;4.57;;;4.03;;
3801;SDS011;1916;51.798;12.246;2023-06-05T04:00:44;7.10;;;4.43;;
3801;SDS011;1916;51.798;12.246;2023-06-05T04:02:48;4.73;;;4.30;;
3801;SDS011;1916;51.798;12.246;2023-06-05T04:04:50;5.00;;;4.03;;
3801;SDS011;1916;51.798;12.246;2023-06-05T04:06:55;5.80;;;4.00;;
3801;SDS011;1916;51.798;12.246;2023-06-05T04:09:00;10.53;;;4.77;;
3801;SDS011;1916;51.798;12.246;2023-06-05T04:11:03;5.43;;;4.00;;
3801;SDS011;1916;51.798;12.246;2023-06-05T04:13:05;7.50;;;4.43;;
3801;SDS011;1916;51.798;12.246;2023-06-05T04:15:09;12.07;;;5.30;;
3801;SDS011;1916;51.798;12.246;2023-06-05T04:17:14;7.27;;;4.60;;
3801;SDS011;1916;51.798;12.246;2023-06-05T04:19:16;6.90;;;4.40;;
3801;SDS011;1916;51.798;12.246;2023-06-05T04:21:21;7.73;;;4.70;;
3801;SDS011;1916;51.798;12.246;2023-06-05T04:23:23;5.30;;;4.30;;
3801;SDS011;1916;51.798;12.246;2023-06-05T04:25:25;5.33;;;4.23;;
3801;SDS011;1916;51.798;12.246;2023-06-05T04:27:31;7.33;;;4.63;;
3801;SDS011;1916;51.798;12.246;2023-06-05T04:29:33;7.67;;;4.20;;
3801;SDS011;1916;51.798;12.246;2023-06-05T04:31:35;6.80;;;4.67;;
3801;SDS011;1916;51.798;12.246;2023-06-05T04:33:41;5.00;;;4.23;;
3801;SDS011;1916;51.798;12.246;2023-06-05T04:35:43;7.03;;;4.77;;
3801;SDS011;1916;51.798;12.246;2023-06-05T04:37:46;6.10;;;4.37;;
3801;SDS011;1916;51.798;12.246;2023-06-05T04:39:48;8.03;;;4.70;;
3801;SDS011;1916;51.798;12.246;2023-06-05T04:41:50;6.70;;;4.63;;
3801;SDS011;1916;51.798;12.246;2023-06-05T04:44:13;6.37;;;5.10;;
3801;SDS011;1916;51.798;12.246;2023-06-05T04:46:18;13.10;;;5.07;;
3801;SDS011;1916;51.798;12.246;2023-06-05T04:48:20;8.80;;;5.17;;
3801;SDS011;1916;51.798;12.246;2023-06-05T04:50:24;4.60;;;4.20;;
3801;SDS011;1916;51.798;12.246;2023-06-05T04:52:37;6.50;;;5.00;;
3801;SDS011;1916;51.798;12.246;2023-06-05T04:54:42;7.97;;;4.20;;
3801;SDS011;1916;51.798;12.246;2023-06-05T04:56:45;6.20;;;4.27;;
3801;SDS011;1916;51.798;12.246;2023-06-05T04:58:47;5.67;;;4.13;;
3801;SDS011;1916;51.798;12.246;2023-06-05T05:00:53;11.93;;;5.80;;
3801;SDS011;1916;51.798;12.246;2023-06-05T05:02:55;6.40;;;4.13;;
3801;SDS011;1916;51.798;12.246;2023-06-05T05:04:58;4.70;;;3.83;;
3801;SDS011;1916;51.798;12.246;2023-06-05T05:07:01;7.40;;;5.10;;
3801;SDS011;1916;51.798;12.246;2023-06-05T05:09:04;7.90;;;4.37;;
3801;SDS011;1916;51.798;12.246;2023-06-05T05:11:08;6.20;;;3.90;;
3801;SDS011;1916;51.798;12.246;2023-06-05T05:13:11;7.07;;;4.20;;
3801;SDS011;1916;51.798;12.246;2023-06-05T05:15:13;7.93;;;4.03;;
3801;SDS011;1916;51.798;12.246;2023-06-05T05:17:16;8.20;;;4.03;;
3801;SDS011;1916;51.798;12.246;2023-06-05T05:19:21;5.90;;;3.90;;
3801;SDS011;1916;51.798;12.246;2023-06-05T05:21:24;8.33;;;5.17;;
3801;SDS011;1916;51.798;12.246;2023-06-05T05:23:27;9.03;;;4.40;;
3801;SDS011;1916;51.798;12.246;2023-06-05T05:25:29;5.37;;;4.40;;
3801;SDS011;1916;51.798;12.246;2023-06-05T05:27:32;6.67;;;3.93;;
3801;SDS011;1916;51.798;12.246;2023-06-05T05:29:34;5.57;;;4.07;;
3801;SDS011;1916;51.798;12.246;2023-06-05T05:31:37;8.27;;;4.60;;
3801;SDS011;1916;51.798;12.246;2023-06-05T05:33:39;6.53;;;3.80;;
3801;SDS011;1916;51.798;12.246;2023-06-05T05:35:42;7.10;;;4.33;;
3801;SDS011;1916;51.798;12.246;2023-06-05T05:37:46;7.50;;;4.20;;
3801;SDS011;1916;51.798;12.246;2023-06-05T05:39:48;6.30;;;4.33;;
3801;SDS011;1916;51.798;12.246;2023-06-05T05:41:50;5.47;;;3.87;;
3801;SDS011;1916;51.798;12.246;2023-06-05T05:43:53;7.63;;;3.97;;
3801;SDS011;1916;51.798;12.246;2023-06-05T05:45:55;5.13;;;4.03;;
3801;SDS011;1916;51.798;12.246;2023-06-05T05:47:57;7.43;;;4.47;;
3801;SDS011;1916;51.798;12.246;2023-06-05T05:49:59;12.90;;;4.73;;
3801;SDS011;1916;51.798;12.246;2023-06-05T05:52:02;6.67;;;4.50;;
3801;SDS011;1916;51.798;12.246;2023-06-05T05:54:05;8.27;;;5.03;;
3801;SDS011;1916;51.798;12.246;2023-06-05T05:56:07;6.50;;;3.87;;
3801;SDS011;1916;51.798;12.246;2023-06-05T05:58:09;7.40;;;4.40;;
3801;SDS011;1916;51.798;12.246;2023-06-05T06:00:12;6.10;;;4.00;;
3801;SDS011;1916;51.798;12.246;2023-06-05T06:02:14;7.50;;;4.00;;
3801;SDS011;1916;51.798;12.246;2023-06-05T06:04:17;4.40;;;3.80;;
3801;SDS011;1916;51.798;12.246;2023-06-05T06:06:20;5.83;;;3.80;;
3801;SDS011;1916;51.798;12.246;2023-06-05T06:08:22;4.93;;;4.00;;
3801;SDS011;1916;51.798;12.246;2023-06-05T06:10:24;5.93;;;3.87;;
3801;SDS011;1916;51.798;12.246;2023-06-05T06:12:28;4.17;;;3.63;;
3801;SDS011;1916;51.798;12.246;2023-06-05T06:14:31;4.40;;;3.70;;
3801;SDS011;1916;51.798;12.246;2023-06-05T06:16:33;7.23;;;4.30;;
3801;SDS011;1916;51.798;12.246;2023-06-05T06:18:36;6.73;;;4.00;;
3801;SDS011;1916;51.798;12.246;2023-06-05T06:20:38;5.60;;;3.90;;
3801;SDS011;1916;51.798;12.246;2023-06-05T06:22:40;4.93;;;3.70;;
3801;SDS011;1916;51.798;12.246;2023-06-05T06:24:43;7.00;;;4.07;;
3801;SDS011;1916;51.798;12.246;2023-06-05T06:26:47;5.00;;;3.33;;
3801;SDS011;1916;51.798;12.246;2023-06-05T06:28:50;5.80;;;3.23;;
3801;SDS011;1916;51.798;12.246;2023-06-05T06:30:52;5.70;;;4.00;;
3801;SDS011;1916;51.798;12.246;2023-06-05T06:32:55;7.23;;;4.07;;
3801;SDS011;1916;51.798;12.246;2023-06-05T06:35:00;8.00;;;3.60;;
3801;SDS011;1916;51.798;12.246;2023-06-05T06:37:02;6.50;;;3.13;;
3801;SDS011;1916;51.798;12.246;2023-06-05T06:39:05;6.13;;;3.77;;
3801;SDS011;1916;51.798;12.246;2023-06-05T06:41:07;5.43;;;3.17;;
3801;SDS011;1916;51.798;12.246;2023-06-05T06:43:10;6.50;;;4.07;;
3801;SDS011;1916;51.798;12.246;2023-06-05T06:45:16;4.90;;;3.03;;
3801;SDS011;1916;51.798;12.246;2023-06-05T06:47:22;3.90;;;3.33;;
3801;SDS011;1916;51.798;12.246;2023-06-05T06:49:24;4.20;;;3.63;;
3801;SDS011;1916;51.798;12.246;2023-06-05T06:51:28;5.23;;;3.57;;
3801;SDS011;1916;51.798;12.246;2023-06-05T06:53:30;7.93;;;3.20;;
3801;SDS011;1916;51.798;12.246;2023-06-05T06:55:32;6.33;;;3.50;;
3801;SDS011;1916;51.798;12.246;2023-06-05T06:57:34;5.73;;;3.27;;
3801;SDS011;1916;51.798;12.246;2023-06-05T06:59:37;3.97;;;3.30;;
3801;SDS011;1916;51.798;12.246;2023-06-05T07:01:42;4.77;;;3.33;;
3801;SDS011;1916;51.798;12.246;2023-06-05T07:03:47;4.40;;;3.40;;
3801;SDS011;1916;51.798;12.246;2023-06-05T07:05:49;6.33;;;3.03;;
3801;SDS011;1916;51.798;12.246;2023-06-05T07:07:52;4.47;;;3.67;;
3801;SDS011;1916;51.798;12.246;2023-06-05T07:09:54;4.43;;;3.27;;
3801;SDS011;1916;51.798;12.246;2023-06-05T07:11:59;3.00;;;2.70;;
3801;SDS011;1916;51.798;12.246;2023-06-05T07:14:06;6.70;;;3.03;;
3801;SDS011;1916;51.798;12.246;2023-06-05T07:16:09;5.10;;;3.07;;
3801;SDS011;1916;51.798;12.246;2023-06-05T07:18:11;6.97;;;3.40;;
3801;SDS011;1916;51.798;12.246;2023-06-05T07:20:13;3.30;;;2.30;;
3801;SDS011;1916;51.798;12.246;2023-06-05T07:22:16;7.20;;;6.40;;
3801;SDS011;1916;51.798;12.246;2023-06-05T07:24:18;6.90;;;5.20;;
3801;SDS011;1916;51.798;12.246;2023-06-05T07:26:20;6.70;;;4.37;;
3801;SDS011;1916;51.798;12.246;2023-06-05T07:28:23;10.10;;;3.27;;
3801;SDS011;1916;51.798;12.246;2023-06-05T07:30:27;3.60;;;3.23;;
3801;SDS011;1916;51.798;12.246;2023-06-05T07:32:30;5.60;;;3.10;;
3801;SDS011;1916;51.798;12.246;2023-06-05T07:34:32;8.30;;;3.00;;
3801;SDS011;1916;51.798;12.246;2023-06-05T07:36:36;7.70;;;2.83;;
3801;SDS011;1916;51.798;12.246;2023-06-05T07:38:38;6.53;;;2.70;;
3801;SDS011;1916;51.798;12.246;2023-06-05T07:40:40;8.53;;;3.00;;
3801;SDS011;1916;51.798;12.246;2023-06-05T07:42:42;5.63;;;2.43;;
3801;SDS011;1916;51.798;12.246;2023-06-05T07:44:44;6.07;;;3.03;;
3801;SDS011;1916;51.798;12.246;2023-06-05T07:46:47;3.67;;;3.03;;
3801;SDS011;1916;51.798;12.246;2023-06-05T07:48:50;5.97;;;3.00;;
3801;SDS011;1916;51.798;12.246;2023-06-05T07:50:52;5.50;;;2.70;;
3801;SDS011;1916;51.798;12.246;2023-06-05T07:52:54;4.40;;;3.17;;
3801;SDS011;1916;51.798;12.246;2023-06-05T07:54:56;5.07;;;3.10;;
3801;SDS011;1916;51.798;12.246;2023-06-05T07:56:59;4.03;;;3.00;;
3801;SDS011;1916;51.798;12.246;2023-06-05T07:59:02;5.70;;;3.60;;
3801;SDS011;1916;51.798;12.246;2023-06-05T08:01:04;4.87;;;3.00;;
3801;SDS011;1916;51.798;12.246;2023-06-05T08:03:09;4.17;;;2.73;;
3801;SDS011;1916;51.798;12.246;2023-06-05T08:05:12;4.13;;;3.03;;
3801;SDS011;1916;51.798;12.246;2023-06-05T08:07:15;6.60;;;2.80;;
3801;SDS011;1916;51.798;12.246;2023-06-05T08:09:17;6.70;;;3.20;;
3801;SDS011;1916;51.798;12.246;2023-06-05T08:11:19;3.40;;;2.40;;
3801;SDS011;1916;51.798;12.246;2023-06-05T08:13:21;3.20;;;2.73;;
3801;SDS011;1916;51.798;12.246;2023-06-05T08:15:23;6.07;;;2.87;;
3801;SDS011;1916;51.798;12.246;2023-06-05T08:17:27;2.60;;;2.33;;
3801;SDS011;1916;51.798;12.246;2023-06-05T08:19:29;3.73;;;2.67;;
3801;SDS011;1916;51.798;12.246;2023-06-05T08:21:33;6.83;;;2.73;;
3801;SDS011;1916;51.798;12.246;2023-06-05T08:23:36;5.40;;;2.40;;
3801;SDS011;1916;51.798;12.246;2023-06-05T08:25:38;4.23;;;2.23;;
3801;SDS011;1916;51.798;12.246;2023-06-05T08:27:40;3.13;;;2.80;;
3801;SDS011;1916;51.798;12.246;2023-06-05T08:29:42;8.60;;;2.40;;
3801;SDS011;1916;51.798;12.246;2023-06-05T08:31:44;5.07;;;2.30;;
3801;SDS011;1916;51.798;12.246;2023-06-05T08:33:46;4.73;;;2.10;;
3801;SDS011;1916;51.798;12.246;2023-06-05T08:35:48;3.50;;;2.40;;
3801;SDS011;1916;51.798;12.246;2023-06-05T08:37:50;5.47;;;3.50;;
3801;SDS011;1916;51.798;12.246;2023-06-05T08:39:52;5.30;;;2.57;;
3801;SDS011;1916;51.798;12.246;2023-06-05T08:41:55;3.43;;;2.30;;
3801;SDS011;1916;51.798;12.246;2023-06-05T08:44:02;4.40;;;2.30;;
3801;SDS011;1916;51.798;12.246;2023-06-05T08:46:05;4.70;;;2.50;;
3801;SDS011;1916;51.798;12.246;2023-06-05T08:48:08;2.80;;;2.50;;
3801;SDS011;1916;51.798;12.246;2023-06-05T08:50:11;3.43;;;2.20;;
3801;SDS011;1916;51.798;12.246;2023-06-05T08:52:13;3.60;;;1.97;;
3801;SDS011;1916;51.798;12.246;2023-06-05T08:54:16;3.63;;;2.27;;
3801;SDS011;1916;51.798;12.246;2023-06-05T08:56:18;3.50;;;2.27;;
3801;SDS011;1916;51.798;12.246;2023-06-05T08:58:21;3.20;;;2.13;;
3801;SDS011;1916;51.798;12.246;2023-06-05T09:00:23;2.80;;;2.20;;
3801;SDS011;1916;51.798;12.246;2023-06-05T09:02:26;3.50;;;2.30;;
3801;SDS011;1916;51.798;12.246;2023-06-05T09:04:28;4.77;;;2.37;;
3801;SDS011;1916;51.798;12.246;2023-06-05T09:06:32;3.27;;;2.00;;
3801;SDS011;1916;51.798;12.246;2023-06-05T09:08:38;3.87;;;2.00;;
3801;SDS011;1916;51.798;12.246;2023-06-05T09:10:40;2.90;;;2.00;;
3801;SDS011;1916;51.798;12.246;2023-06-05T09:12:55;4.73;;;1.97;;
3801;SDS011;1916;51.798;12.246;2023-06-05T09:14:58;1.87;;;1.70;;
3801;SDS011;1916;51.798;12.246;2023-06-05T09:17:00;3.70;;;2.13;;
3801;SDS011;1916;51.798;12.246;2023-06-05T09:19:04;2.83;;;2.30;;
3801;SDS011;1916;51.798;12.246;2023-06-05T09:21:13;3.30;;;2.10;;
3801;SDS011;1916;51.798;12.246;2023-06-05T09:23:25;4.50;;;2.27;;
3801;SDS011;1916;51.798;12.246;2023-06-05T09:26:04;3.33;;;2.50;;
3801;SDS011;1916;51.798;12.246;2023-06-05T09:28:07;3.20;;;2.50;;
3801;SDS011;1916;51.798;12.246;2023-06-05T09:30:09;3.17;;;2.50;;
3801;SDS011;1916;51.798;12.246;2023-06-05T09:32:18;4.50;;;2.30;;
3801;SDS011;1916;51.798;12.246;2023-06-05T09:34:22;3.77;;;2.10;;
3801;SDS011;1916;51.798;12.246;2023-06-05T09:36:26;6.87;;;2.30;;
3801;SDS011;1916;51.798;12.246;2023-06-05T09:38:29;2.23;;;2.03;;
3801;SDS011;1916;51.798;12.246;2023-06-05T09:40:38;6.70;;;2.63;;
3801;SDS011;1916;51.798;12.246;2023-06-05T09:42:41;6.80;;;2.47;;
3801;SDS011;1916;51.798;12.246;2023-06-05T09:44:43;2.60;;;1.90;;
3801;SDS011;1916;51.798;12.246;2023-06-05T09:47:00;2.30;;;2.10;;
3801;SDS011;1916;51.798;12.246;2023-06-05T09:49:07;2.60;;;2.33;;
3801;SDS011;1916;51.798;12.246;2023-06-05T09:51:13;3.00;;;2.70;;
3801;SDS011;1916;51.798;12.246;2023-06-05T09:53:16;2.57;;;2.37;;
3801;SDS011;1916;51.798;12.246;2023-06-05T09:55:19;2.70;;;2.23;;
3801;SDS011;1916;51.798;12.246;2023-06-05T09:57:21;6.40;;;2.50;;
3801;SDS011;1916;51.798;12.246;2023-06-05T09:59:24;7.00;;;2.10;;
3801;SDS011;1916;51.798;12.246;2023-06-05T10:01:30;5.10;;;2.63;;
3801;SDS011;1916;51.798;12.246;2023-06-05T10:03:33;3.40;;;2.23;;
3801;SDS011;1916;51.798;12.246;2023-06-05T10:05:37;2.27;;;2.00;;
3801;SDS011;1916;51.798;12.246;2023-06-05T10:07:40;3.70;;;2.20;;
3801;SDS011;1916;51.798;12.246;2023-06-05T10:09:43;3.53;;;2.10;;
3801;SDS011;1916;51.798;12.246;2023-06-05T10:11:48;4.40;;;2.30;;
3801;SDS011;1916;51.798;12.246;2023-06-05T10:13:52;3.90;;;2.40;;
3801;SDS011;1916;51.798;12.246;2023-06-05T10:15:55;3.77;;;2.20;;
3801;SDS011;1916;51.798;12.246;2023-06-05T10:17:57;5.27;;;2.30;;
3801;SDS011;1916;51.798;12.246;2023-06-05T10:20:00;3.90;;;2.67;;
3801;SDS011;1916;51.798;12.246;2023-06-05T10:22:03;4.40;;;2.60;;
3801;SDS011;1916;51.798;12.246;2023-06-05T10:24:06;2.70;;;2.03;;
3801;SDS011;1916;51.798;12.246;2023-06-05T10:26:30;7.97;;;2.33;;
3801;SDS011;1916;51.798;12.246;2023-06-05T10:28:38;2.00;;;1.80;;
3801;SDS011;1916;51.798;12.246;2023-06-05T10:40:14;2.40;;;2.03;;
3801;SDS011;1916;51.798;12.246;2023-06-05T10:42:25;5.10;;;2.10;;
3801;SDS011;1916;51.798;12.246;2023-06-05T10:44:37;8.37;;;2.17;;
3801;SDS011;1916;51.798;12.246;2023-06-05T10:46:41;2.30;;;2.10;;
3801;SDS011;1916;51.798;12.246;2023-06-05T10:53:44;2.00;;;1.80;;
3801;SDS011;1916;51.798;12.246;2023-06-05T10:55:48;3.50;;;2.37;;
3801;SDS011;1916;51.798;12.246;2023-06-05T11:00:06;7.00;;;2.10;;
3801;SDS011;1916;51.798;12.246;2023-06-05T11:04:20;6.00;;;2.10;;
3801;SDS011;1916;51.798;12.246;2023-06-05T11:06:23;3.80;;;2.10;;
3801;SDS011;1916;51.798;12.246;2023-06-05T11:08:25;3.13;;;1.90;;
3801;SDS011;1916;51.798;12.246;2023-06-05T11:10:28;2.43;;;2.00;;
3801;SDS011;1916;51.798;12.246;2023-06-05T11:14:47;2.97;;;2.17;;
3801;SDS011;1916;51.798;12.246;2023-06-05T11:16:50;3.00;;;2.07;;
3801;SDS011;1916;51.798;12.246;2023-06-05T11:18:52;4.10;;;1.90;;
3801;SDS011;1916;51.798;12.246;2023-06-05T11:20:57;3.77;;;2.20;;
3801;SDS011;1916;51.798;12.246;2023-06-05T11:25:23;2.60;;;2.13;;
3801;SDS011;1916;51.798;12.246;2023-06-05T11:27:41;4.10;;;2.07;;
3801;SDS011;1916;51.798;12.246;2023-06-05T11:29:47;3.10;;;2.03;;
3801;SDS011;1916;51.798;12.246;2023-06-05T11:31:50;2.70;;;2.20;;
3801;SDS011;1916;51.798;12.246;2023-06-05T11:33:53;5.00;;;2.00;;
3801;SDS011;1916;51.798;12.246;2023-06-05T11:35:59;2.30;;;2.00;;
3801;SDS011;1916;51.798;12.246;2023-06-05T11:40:23;3.37;;;1.97;;
3801;SDS011;1916;51.798;12.246;2023-06-05T11:42:26;2.53;;;2.33;;
3801;SDS011;1916;51.798;12.246;2023-06-05T11:44:32;2.70;;;1.83;;
3801;SDS011;1916;51.798;12.246;2023-06-05T11:46:36;2.70;;;2.50;;
3801;SDS011;1916;51.798;12.246;2023-06-05T11:48:45;2.40;;;1.90;;
3801;SDS011;1916;51.798;12.246;2023-06-05T11:51:04;2.47;;;2.20;;
3801;SDS011;1916;51.798;12.246;2023-06-05T11:53:08;2.63;;;2.37;;
3801;SDS011;1916;51.798;12.246;2023-06-05T11:57:23;2.60;;;2.10;;
3801;SDS011;1916;51.798;12.246;2023-06-05T11:59:47;4.10;;;1.87;;
3801;SDS011;1916;51.798;12.246;2023-06-05T12:01:50;3.60;;;2.17;;
3801;SDS011;1916;51.798;12.246;2023-06-05T12:04:03;2.57;;;2.10;;
3801;SDS011;1916;51.798;12.246;2023-06-05T12:06:06;6.57;;;2.33;;
3801;SDS011;1916;51.798;12.246;2023-06-05T12:08:22;2.33;;;1.90;;
3801;SDS011;1916;51.798;12.246;2023-06-05T12:10:33;2.70;;;1.73;;
3801;SDS011;1916;51.798;12.246;2023-06-05T12:12:51;3.67;;;1.97;;
3801;SDS011;1916;51.798;12.246;2023-06-05T12:14:54;2.43;;;2.23;;
3801;SDS011;1916;51.798;12.246;2023-06-05T12:16:57;3.20;;;1.90;;
3801;SDS011;1916;51.798;12.246;2023-06-05T12:19:10;3.93;;;1.80;;
3801;SDS011;1916;51.798;12.246;2023-06-05T12:21:21;4.17;;;2.33;;
3801;SDS011;1916;51.798;12.246;2023-06-05T12:23:29;2.63;;;2.43;;
3801;SDS011;1916;51.798;12.246;2023-06-05T12:25:33;2.27;;;1.97;;
3801;SDS011;1916;51.798;12.246;2023-06-05T12:27:36;2.53;;;2.33;;
3801;SDS011;1916;51.798;12.246;2023-06-05T12:29:38;2.37;;;2.00;;
3801;SDS011;1916;51.798;12.246;2023-06-05T12:31:54;3.20;;;2.30;;
3801;SDS011;1916;51.798;12.246;2023-06-05T12:33:58;2.30;;;2.10;;
3801;SDS011;1916;51.798;12.246;2023-06-05T12:36:04;2.37;;;2.17;;
3801;SDS011;1916;51.798;12.246;2023-06-05T12:38:07;2.70;;;2.13;;
3801;SDS011;1916;51.798;12.246;2023-06-05T12:40:10;4.80;;;2.60;;
3801;SDS011;1916;51.798;12.246;2023-06-05T12:42:13;3.37;;;2.40;;
3801;SDS011;1916;51.798;12.246;2023-06-05T12:44:15;4.63;;;2.13;;
3801;SDS011;1916;51.798;12.246;2023-06-05T12:46:18;2.30;;;2.10;;
3801;SDS011;1916;51.798;12.246;2023-06-05T12:48:20;2.07;;;1.87;;
3801;SDS011;1916;51.798;12.246;2023-06-05T12:50:24;2.30;;;2.10;;
3801;SDS011;1916;51.798;12.246;2023-06-05T12:52:28;4.67;;;2.60;;
3801;SDS011;1916;51.798;12.246;2023-06-05T12:54:30;3.60;;;2.00;;
3801;SDS011;1916;51.798;12.246;2023-06-05T12:56:32;2.90;;;2.30;;
3801;SDS011;1916;51.798;12.246;2023-06-05T12:58:36;3.50;;;2.27;;
3801;SDS011;1916;51.798;12.246;2023-06-05T13:00:39;3.47;;;2.03;;
3801;SDS011;1916;51.798;12.246;2023-06-05T13:02:44;2.10;;;1.83;;
3801;SDS011;1916;51.798;12.246;2023-06-05T13:04:47;2.97;;;2.17;;
3801;SDS011;1916;51.798;12.246;2023-06-05T13:06:49;4.33;;;2.70;;
3801;SDS011;1916;51.798;12.246;2023-06-05T13:08:56;2.50;;;2.30;;
3801;SDS011;1916;51.798;12.246;2023-06-05T13:10:58;4.10;;;2.20;;